sensor_id;sensor_type;location;lat;lon;timestamp;pressure;altitude;pressure_sealevel;temperature;humidity
75692;BME280;64307;52.508;6.090;2023-04-01T00:02:16;99101.31;;;9.96;100.00
75692;BME280;64307;52.508;6.090;2023-04-01T00:04:41;99103.72;;;9.94;100.00
75692;BME280;64307;52.508;6.090;2023-04-01T00:07:07;99092.72;;;9.90;100.00
75692;BME280;64307;52.508;6.090;2023-04-01T00:09:32;99093.66;;;9.84;100.00
75692;BME280;64307;52.508;6.090;2023-04-01T00:11:59;99097.94;;;9.88;100.00
75692;BME280;64307;52.508;6.090;2023-04-01T00:14:24;99099.06;;;9.91;100.00
75692;BME280;64307;52.508;6.090;2023-04-01T00:16:49;99099.91;;;9.88;100.00
75692;BME280;64307;52.508;6.090;2023-04-01T00:19:15;99093.22;;;9.85;100.00
75692;BME280;64307;52.508;6.090;2023-04-01T00:21:41;99105.38;;;9.91;100.00
75692;BME280;64307;52.508;6.090;2023-04-01T00:24:07;99107.81;;;9.89;100.00
75692;BME280;64307;52.508;6.090;2023-04-01T00:26:32;99105.47;;;9.88;100.00
75692;BME280;64307;52.508;6.090;2023-04-01T00:28:58;99100.78;;;9.85;100.00
75692;BME280;64307;52.508;6.090;2023-04-01T00:31:23;99109.91;;;9.85;100.00
75692;BME280;64307;52.508;6.090;2023-04-01T00:33:48;99107.06;;;9.89;100.00
75692;BME280;64307;52.508;6.090;2023-04-01T00:36:17;99109.50;;;9.87;100.00
75692;BME280;64307;52.508;6.090;2023-04-01T00:38:43;99107.81;;;9.89;100.00
75692;BME280;64307;52.508;6.090;2023-04-01T00:41:09;99107.81;;;9.89;100.00
75692;BME280;64307;52.508;6.090;2023-04-01T00:43:39;99103.72;;;9.94;100.00
75692;BME280;64307;52.508;6.090;2023-04-01T00:46:05;99099.91;;;9.88;100.00
75692;BME280;64307;52.508;6.090;2023-04-01T00:48:31;99106.16;;;9.92;100.00
75692;BME280;64307;52.508;6.090;2023-04-01T00:51:04;99104.53;;;9.95;100.00
75692;BME280;64307;52.508;6.090;2023-04-01T00:53:32;99106.50;;;9.94;100.00
75692;BME280;64307;52.508;6.090;2023-04-01T00:56:04;99107.41;;;9.91;100.00
75692;BME280;64307;52.508;6.090;2023-04-01T00:58:34;99110.94;;;9.91;100.00
75692;BME280;64307;52.508;6.090;2023-04-01T01:01:00;99109.75;;;9.93;100.00
75692;BME280;64307;52.508;6.090;2023-04-01T01:03:26;99111.63;;;9.96;100.00
75692;BME280;64307;52.508;6.090;2023-04-01T01:06:14;99109.28;;;9.94;100.00
75692;BME280;64307;52.508;6.090;2023-04-01T01:11:54;99111.72;;;9.92;100.00
75692;BME280;64307;52.508;6.090;2023-04-01T01:14:44;99111.97;;;9.98;100.00
75692;BME280;64307;52.508;6.090;2023-04-01T01:17:25;99111.91;;;10.01;100.00
75692;BME280;64307;52.508;6.090;2023-04-01T01:28:47;99123.38;;;10.03;100.00
75692;BME280;64307;52.508;6.090;2023-04-01T01:36:43;99119.56;;;9.97;100.00
75692;BME280;64307;52.508;6.090;2023-04-01T01:39:12;99117.47;;;10.01;100.00
75692;BME280;64307;52.508;6.090;2023-04-01T01:41:41;99115.38;;;10.05;100.00
75692;BME280;64307;52.508;6.090;2023-04-01T01:44:08;99121.75;;;10.06;100.00
75692;BME280;64307;52.508;6.090;2023-04-01T01:46:37;99119.31;;;10.08;100.00
75692;BME280;64307;52.508;6.090;2023-04-01T01:49:05;99126.34;;;10.12;100.00
75692;BME280;64307;52.508;6.090;2023-04-01T01:51:32;99124.00;;;10.11;100.00
75692;BME280;64307;52.508;6.090;2023-04-01T01:53:57;99128.84;;;10.07;100.00
75692;BME280;64307;52.508;6.090;2023-04-01T01:56:26;99127.94;;;10.13;100.00
75692;BME280;64307;52.508;6.090;2023-04-01T01:58:56;99132.06;;;10.05;100.00
75692;BME280;64307;52.508;6.090;2023-04-01T02:01:29;99133.56;;;10.10;100.00
75692;BME280;64307;52.508;6.090;2023-04-01T02:03:55;99133.56;;;10.10;100.00
75692;BME280;64307;52.508;6.090;2023-04-01T02:06:23;99143.38;;;10.14;100.00
75692;BME280;64307;52.508;6.090;2023-04-01T02:08:59;99138.72;;;10.11;100.00
75692;BME280;64307;52.508;6.090;2023-04-01T02:14:23;99138.59;;;9.99;100.00
75692;BME280;64307;52.508;6.090;2023-04-01T02:16:57;99157.28;;;10.14;100.00
75692;BME280;64307;52.508;6.090;2023-04-01T02:19:27;99149.72;;;10.15;100.00
75692;BME280;64307;52.508;6.090;2023-04-01T02:21:59;99152.50;;;10.15;100.00
75692;BME280;64307;52.508;6.090;2023-04-01T02:24:28;99154.78;;;10.20;100.00
75692;BME280;64307;52.508;6.090;2023-04-01T02:26:55;99156.00;;;10.19;100.00
75692;BME280;64307;52.508;6.090;2023-04-01T02:29:22;99154.84;;;10.16;100.00
75692;BME280;64307;52.508;6.090;2023-04-01T02:31:49;99162.50;;;10.12;100.00
75692;BME280;64307;52.508;6.090;2023-04-01T02:34:15;99149.56;;;10.06;100.00
75692;BME280;64307;52.508;6.090;2023-04-01T02:36:41;99153.44;;;10.08;100.00
75692;BME280;64307;52.508;6.090;2023-04-01T02:39:08;99155.88;;;10.06;100.00
75692;BME280;64307;52.508;6.090;2023-04-01T02:41:44;99160.50;;;10.13;100.00
75692;BME280;64307;52.508;6.090;2023-04-01T02:44:12;99150.75;;;10.05;100.00
75692;BME280;64307;52.508;6.090;2023-04-01T02:46:38;99157.72;;;10.13;100.00
75692;BME280;64307;52.508;6.090;2023-04-01T02:49:03;99172.09;;;10.11;100.00
75692;BME280;64307;52.508;6.090;2023-04-01T02:51:29;99160.69;;;10.06;100.00
75692;BME280;64307;52.508;6.090;2023-04-01T02:53:54;99167.00;;;10.06;100.00
75692;BME280;64307;52.508;6.090;2023-04-01T02:56:20;99167.94;;;10.00;100.00
75692;BME280;64307;52.508;6.090;2023-04-01T02:58:46;99166.41;;;9.99;100.00
75692;BME280;64307;52.508;6.090;2023-04-01T03:01:11;99169.44;;;10.04;100.00
75692;BME280;64307;52.508;6.090;2023-04-01T03:03:39;99179.69;;;10.07;100.00
75692;BME280;64307;52.508;6.090;2023-04-01T03:06:06;99171.34;;;10.07;100.00
75692;BME280;64307;52.508;6.090;2023-04-01T03:08:32;99176.91;;;10.07;100.00
75692;BME280;64307;52.508;6.090;2023-04-01T03:10:57;99178.06;;;10.10;100.00
75692;BME280;64307;52.508;6.090;2023-04-01T03:13:22;99184.00;;;10.12;100.00
75692;BME280;64307;52.508;6.090;2023-04-01T03:15:48;99185.44;;;10.16;100.00
75692;BME280;64307;52.508;6.090;2023-04-01T03:18:13;99185.91;;;10.15;100.00
75692;BME280;64307;52.508;6.090;2023-04-01T03:20:38;99189.97;;;10.10;100.00
75692;BME280;64307;52.508;6.090;2023-04-01T03:23:03;99192.69;;;10.14;100.00
75692;BME280;64307;52.508;6.090;2023-04-01T03:25:28;99192.69;;;10.14;100.00
75692;BME280;64307;52.508;6.090;2023-04-01T03:27:55;99193.03;;;10.16;100.00
75692;BME280;64307;52.508;6.090;2023-04-01T03:30:21;99197.81;;;10.15;100.00
75692;BME280;64307;52.508;6.090;2023-04-01T03:32:46;99197.81;;;10.15;100.00
75692;BME280;64307;52.508;6.090;2023-04-01T03:35:11;99209.72;;;10.16;100.00
75692;BME280;64307;52.508;6.090;2023-04-01T03:37:38;99205.81;;;10.13;100.00
75692;BME280;64307;52.508;6.090;2023-04-01T03:40:03;99205.28;;;10.18;100.00
75692;BME280;64307;52.508;6.090;2023-04-01T03:42:30;99216.75;;;10.20;100.00
75692;BME280;64307;52.508;6.090;2023-04-01T03:44:56;99211.19;;;10.20;100.00
75692;BME280;64307;52.508;6.090;2023-04-01T03:47:21;99206.84;;;10.19;100.00
75692;BME280;64307;52.508;6.090;2023-04-01T03:49:46;99216.00;;;10.20;100.00
75692;BME280;64307;52.508;6.090;2023-04-01T03:52:12;99211.88;;;10.24;100.00
75692;BME280;64307;52.508;6.090;2023-04-01T03:54:37;99214.25;;;10.26;100.00
75692;BME280;64307;52.508;6.090;2023-04-01T03:57:02;99220.56;;;10.26;100.00
75692;BME280;64307;52.508;6.090;2023-04-01T03:59:28;99224.94;;;10.27;100.00
75692;BME280;64307;52.508;6.090;2023-04-01T04:01:55;99226.50;;;10.28;100.00
75692;BME280;64307;52.508;6.090;2023-04-01T04:04:20;99221.22;;;10.18;100.00
75692;BME280;64307;52.508;6.090;2023-04-01T04:06:47;99233.44;;;10.20;100.00
75692;BME280;64307;52.508;6.090;2023-04-01T04:09:13;99219.97;;;10.19;100.00
75692;BME280;64307;52.508;6.090;2023-04-01T04:11:38;99222.66;;;10.22;100.00
75692;BME280;64307;52.508;6.090;2023-04-01T04:14:04;99231.34;;;10.24;100.00
75692;BME280;64307;52.508;6.090;2023-04-01T04:16:29;99234.69;;;10.19;100.00
75692;BME280;64307;52.508;6.090;2023-04-01T04:18:54;99235.13;;;10.18;100.00
75692;BME280;64307;52.508;6.090;2023-04-01T04:21:19;99234.59;;;10.23;100.00
75692;BME280;64307;52.508;6.090;2023-04-01T04:23:45;99240.25;;;10.19;100.00
75692;BME280;64307;52.508;6.090;2023-04-01T04:26:11;99248.22;;;10.17;100.00
75692;BME280;64307;52.508;6.090;2023-04-01T04:28:37;99245.09;;;10.15;100.00
75692;BME280;64307;52.508;6.090;2023-04-01T04:31:02;99250.66;;;10.15;100.00
75692;BME280;64307;52.508;6.090;2023-04-01T04:33:29;99243.88;;;10.16;100.00
75692;BME280;64307;52.508;6.090;2023-04-01T04:35:55;99253.44;;;10.15;100.00
75692;BME280;64307;52.508;6.090;2023-04-01T04:38:21;99256.56;;;10.17;100.00
75692;BME280;64307;52.508;6.090;2023-04-01T04:40:46;99256.56;;;10.17;100.00
75692;BME280;64307;52.508;6.090;2023-04-01T04:43:12;99261.34;;;10.17;100.00
75692;BME280;64307;52.508;6.090;2023-04-01T04:45:39;99262.50;;;10.19;100.00
75692;BME280;64307;52.508;6.090;2023-04-01T04:48:04;99270.75;;;10.23;100.00
75692;BME280;64307;52.508;6.090;2023-04-01T04:50:30;99264.28;;;10.10;100.00
75692;BME280;64307;52.508;6.090;2023-04-01T04:52:56;99263.00;;;10.14;100.00
75692;BME280;64307;52.508;6.090;2023-04-01T04:55:21;99272.63;;;10.10;100.00
75692;BME280;64307;52.508;6.090;2023-04-01T04:57:46;99272.56;;;10.13;100.00
75692;BME280;64307;52.508;6.090;2023-04-01T05:00:12;99280.91;;;10.13;100.00
75692;BME280;64307;52.508;6.090;2023-04-01T05:02:37;99285.41;;;10.07;100.00
75692;BME280;64307;52.508;6.090;2023-04-01T05:05:03;99281.75;;;10.10;100.00
75692;BME280;64307;52.508;6.090;2023-04-01T05:07:29;99281.38;;;10.08;100.00
75692;BME280;64307;52.508;6.090;2023-04-01T05:09:55;99279.84;;;10.07;100.00
75692;BME280;64307;52.508;6.090;2023-04-01T05:12:21;99293.25;;;10.12;100.00
75692;BME280;64307;52.508;6.090;2023-04-01T05:14:46;99294.88;;;10.10;100.00
75692;BME280;64307;52.508;6.090;2023-04-01T05:17:12;99302.38;;;10.13;100.00
75692;BME280;64307;52.508;6.090;2023-04-01T05:19:37;99309.88;;;10.16;100.00
75692;BME280;64307;52.508;6.090;2023-04-01T05:22:05;99301.25;;;10.10;100.00
75692;BME280;64307;52.508;6.090;2023-04-01T05:24:31;99306.31;;;10.15;100.00
75692;BME280;64307;52.508;6.090;2023-04-01T05:26:57;99311.44;;;10.17;100.00
75692;BME280;64307;52.508;6.090;2023-04-01T05:29:23;99313.78;;;10.18;100.00
75692;BME280;64307;52.508;6.090;2023-04-01T05:31:48;99318.41;;;10.25;100.00
75692;BME280;64307;52.508;6.090;2023-04-01T05:34:14;99311.69;;;10.22;100.00
75692;BME280;64307;52.508;6.090;2023-04-01T05:36:39;99318.97;;;10.16;100.00
75692;BME280;64307;52.508;6.090;2023-04-01T05:39:07;99321.69;;;10.20;100.00
75692;BME280;64307;52.508;6.090;2023-04-01T05:41:35;99329.53;;;10.25;100.00
75692;BME280;64307;52.508;6.090;2023-04-01T05:44:00;99331.25;;;10.19;100.00
75692;BME280;64307;52.508;6.090;2023-04-01T05:46:26;99331.16;;;10.22;100.00
75692;BME280;64307;52.508;6.090;2023-04-01T05:48:51;99333.53;;;10.24;100.00
75692;BME280;64307;52.508;6.090;2023-04-01T05:51:16;99333.88;;;10.26;100.00
75692;BME280;64307;52.508;6.090;2023-04-01T05:53:41;99341.34;;;10.29;100.00
75692;BME280;64307;52.508;6.090;2023-04-01T05:56:07;99346.06;;;10.32;100.00
75692;BME280;64307;52.508;6.090;2023-04-01T05:58:35;99336.66;;;10.26;100.00
75692;BME280;64307;52.508;6.090;2023-04-01T06:01:09;99349.28;;;10.30;100.00
75692;BME280;64307;52.508;6.090;2023-04-01T06:03:34;99353.13;;;10.36;100.00
75692;BME280;64307;52.508;6.090;2023-04-01T06:06:00;99355.38;;;10.41;100.00
75692;BME280;64307;52.508;6.090;2023-04-01T06:08:27;99359.22;;;10.47;100.00
75692;BME280;64307;52.508;6.090;2023-04-01T06:11:15;99360.72;;;10.52;100.00
75692;BME280;64307;52.508;6.090;2023-04-01T06:16:48;99371.06;;;10.51;100.00
75692;BME280;64307;52.508;6.090;2023-04-01T06:25:38;99383.69;;;10.56;100.00
75692;BME280;64307;52.508;6.090;2023-04-01T06:42:33;99398.16;;;10.67;100.00
75692;BME280;64307;52.508;6.090;2023-04-01T06:48:10;99411.81;;;10.78;100.00
75692;BME280;64307;52.508;6.090;2023-04-01T06:50:44;99417.69;;;10.99;100.00
75692;BME280;64307;52.508;6.090;2023-04-01T06:53:42;99415.78;;;11.12;100.00
75692;BME280;64307;52.508;6.090;2023-04-01T06:56:18;99405.84;;;11.11;100.00
75692;BME280;64307;52.508;6.090;2023-04-01T07:01:14;99426.56;;;11.42;100.00
75692;BME280;64307;52.508;6.090;2023-04-01T07:03:43;99416.03;;;11.18;100.00
75692;BME280;64307;52.508;6.090;2023-04-01T07:06:26;99425.03;;;11.54;100.00
75692;BME280;64307;52.508;6.090;2023-04-01T07:08:54;99430.53;;;11.74;99.37
75692;BME280;64307;52.508;6.090;2023-04-01T07:11:31;99433.75;;;11.56;99.56
75692;BME280;64307;52.508;6.090;2023-04-01T07:14:10;99437.09;;;11.51;100.00
75692;BME280;64307;52.508;6.090;2023-04-01T07:16:43;99448.72;;;11.62;100.00
75692;BME280;64307;52.508;6.090;2023-04-01T07:19:22;99452.41;;;11.75;99.12
75692;BME280;64307;52.508;6.090;2023-04-01T07:21:53;99455.09;;;11.79;98.89
75692;BME280;64307;52.508;6.090;2023-04-01T07:24:31;99462.44;;;11.73;99.49
75692;BME280;64307;52.508;6.090;2023-04-01T07:26:58;99463.22;;;11.57;99.12
75692;BME280;64307;52.508;6.090;2023-04-01T07:29:25;99457.00;;;11.49;99.54
75692;BME280;64307;52.508;6.090;2023-04-01T07:31:58;99469.75;;;11.50;99.50
75692;BME280;64307;52.508;6.090;2023-04-01T07:34:32;99471.84;;;11.46;100.00
75692;BME280;64307;52.508;6.090;2023-04-01T07:37:22;99475.75;;;11.33;100.00
75692;BME280;64307;52.508;6.090;2023-04-01T07:40:05;99486.91;;;11.33;100.00
75692;BME280;64307;52.508;6.090;2023-04-01T07:42:40;99487.28;;;11.35;100.00
75692;BME280;64307;52.508;6.090;2023-04-01T07:45:24;99492.66;;;11.42;100.00
75692;BME280;64307;52.508;6.090;2023-04-01T07:53:50;99507.19;;;11.49;100.00
75692;BME280;64307;52.508;6.090;2023-04-01T07:56:27;99504.63;;;11.75;100.00
75692;BME280;64307;52.508;6.090;2023-04-01T08:02:20;99517.53;;;12.13;97.27
75692;BME280;64307;52.508;6.090;2023-04-01T08:05:21;99517.47;;;12.58;95.95
75692;BME280;64307;52.508;6.090;2023-04-01T08:10:36;99529.03;;;12.15;97.09
75692;BME280;64307;52.508;6.090;2023-04-01T08:13:32;99533.63;;;11.93;99.10
75692;BME280;64307;52.508;6.090;2023-04-01T08:16:23;99541.75;;;11.72;98.97
75692;BME280;64307;52.508;6.090;2023-04-01T08:21:38;99537.81;;;11.85;99.86
75692;BME280;64307;52.508;6.090;2023-04-01T08:24:20;99554.38;;;11.76;100.00
75692;BME280;64307;52.508;6.090;2023-04-01T08:26:53;99557.09;;;11.80;99.96
75692;BME280;64307;52.508;6.090;2023-04-01T08:29:23;99558.56;;;11.68;100.00
75692;BME280;64307;52.508;6.090;2023-04-01T08:32:04;99551.22;;;11.58;100.00
75692;BME280;64307;52.508;6.090;2023-04-01T08:34:35;99551.75;;;11.37;100.00
75692;BME280;64307;52.508;6.090;2023-04-01T08:37:08;99561.91;;;11.27;100.00
75692;BME280;64307;52.508;6.090;2023-04-01T08:39:42;99567.94;;;11.42;100.00
75692;BME280;64307;52.508;6.090;2023-04-01T08:42:23;99577.88;;;11.43;100.00
75692;BME280;64307;52.508;6.090;2023-04-01T08:45:15;99580.31;;;11.57;100.00
75692;BME280;64307;52.508;6.090;2023-04-01T08:50:49;99589.50;;;12.06;98.26
75692;BME280;64307;52.508;6.090;2023-04-01T09:07:04;99598.72;;;12.64;93.88
75692;BME280;64307;52.508;6.090;2023-04-01T09:09:53;99609.25;;;12.44;94.83
75692;BME280;64307;52.508;6.090;2023-04-01T09:12:49;99607.81;;;12.07;95.49
75692;BME280;64307;52.508;6.090;2023-04-01T09:36:46;99649.06;;;12.15;95.71
75692;BME280;64307;52.508;6.090;2023-04-01T09:39:35;99652.72;;;12.28;95.23
75692;BME280;64307;52.508;6.090;2023-04-01T09:44:50;99660.38;;;12.41;95.50
75692;BME280;64307;52.508;6.090;2023-04-01T09:58:12;99675.91;;;12.58;93.63
75692;BME280;64307;52.508;6.090;2023-04-01T10:01:18;99677.81;;;12.45;94.30
75692;BME280;64307;52.508;6.090;2023-04-01T10:07:10;99668.84;;;12.82;91.69
75692;BME280;64307;52.508;6.090;2023-04-01T10:13:25;99697.03;;;12.87;92.79
75692;BME280;64307;52.508;6.090;2023-04-01T10:21:55;99708.78;;;12.50;93.11
75692;BME280;64307;52.508;6.090;2023-04-01T10:27:18;99712.91;;;12.29;95.05
75692;BME280;64307;52.508;6.090;2023-04-01T10:30:06;99721.31;;;12.46;95.42
75692;BME280;64307;52.508;6.090;2023-04-01T10:38:51;99729.69;;;12.46;93.55
75692;BME280;64307;52.508;6.090;2023-04-01T10:47:19;99735.31;;;12.10;94.71
75692;BME280;64307;52.508;6.090;2023-04-01T10:50:20;99741.66;;;11.94;95.68
75692;BME280;64307;52.508;6.090;2023-04-01T10:53:15;99742.44;;;11.95;96.16
75692;BME280;64307;52.508;6.090;2023-04-01T11:07:15;99755.50;;;12.66;92.48
75692;BME280;64307;52.508;6.090;2023-04-01T11:25:25;99773.03;;;12.82;91.50
75692;BME280;64307;52.508;6.090;2023-04-01T11:34:28;99784.09;;;13.18;85.29
75692;BME280;64307;52.508;6.090;2023-04-01T11:39:42;99799.03;;;13.11;85.34
75692;BME280;64307;52.508;6.090;2023-04-01T11:42:17;99801.06;;;13.11;84.64
75692;BME280;64307;52.508;6.090;2023-04-01T11:44:58;99807.59;;;13.49;83.28
75692;BME280;64307;52.508;6.090;2023-04-01T11:50:46;99810.22;;;13.11;85.46
75692;BME280;64307;52.508;6.090;2023-04-01T12:04:23;99842.31;;;13.52;83.47
75692;BME280;64307;52.508;6.090;2023-04-01T12:12:39;99847.66;;;13.30;81.47
75692;BME280;64307;52.508;6.090;2023-04-01T12:18:14;99858.97;;;12.94;83.50
75692;BME280;64307;52.508;6.090;2023-04-01T12:20:57;99873.06;;;13.07;82.45
75692;BME280;64307;52.508;6.090;2023-04-01T12:23:49;99881.59;;;13.16;81.95
75692;BME280;64307;52.508;6.090;2023-04-01T12:34:49;99891.38;;;13.40;85.23
75692;BME280;64307;52.508;6.090;2023-04-01T12:37:52;99904.38;;;12.82;89.13
75692;BME280;64307;52.508;6.090;2023-04-01T12:43:02;99902.69;;;12.13;95.01
75692;BME280;64307;52.508;6.090;2023-04-01T12:45:38;99919.72;;;11.99;95.59
75692;BME280;64307;52.508;6.090;2023-04-01T12:48:37;99918.22;;;11.75;96.97
75692;BME280;64307;52.508;6.090;2023-04-01T12:56:37;99941.63;;;11.35;98.24
75692;BME280;64307;52.508;6.090;2023-04-01T12:59:33;99950.41;;;11.33;98.53
75692;BME280;64307;52.508;6.090;2023-04-01T13:02:18;99952.81;;;11.31;98.23
75692;BME280;64307;52.508;6.090;2023-04-01T13:04:56;99959.28;;;11.25;98.54
75692;BME280;64307;52.508;6.090;2023-04-01T13:12:59;99969.13;;;11.10;97.97
75692;BME280;64307;52.508;6.090;2023-04-01T13:15:42;99973.47;;;11.11;97.60
75692;BME280;64307;52.508;6.090;2023-04-01T13:18:25;99992.13;;;11.14;97.08
75692;BME280;64307;52.508;6.090;2023-04-01T13:21:08;99991.13;;;11.27;97.15
75692;BME280;64307;52.508;6.090;2023-04-01T13:23:59;99986.69;;;11.30;97.32
75692;BME280;64307;52.508;6.090;2023-04-01T13:29:19;100001.53;;;11.23;98.42
75692;BME280;64307;52.508;6.090;2023-04-01T13:31:55;100006.06;;;11.14;96.73
75692;BME280;64307;52.508;6.090;2023-04-01T13:34:47;100012.25;;;11.25;97.33
75692;BME280;64307;52.508;6.090;2023-04-01T13:37:32;100020.38;;;11.16;96.83
75692;BME280;64307;52.508;6.090;2023-04-01T13:42:51;100033.00;;;11.24;97.89
75692;BME280;64307;52.508;6.090;2023-04-01T13:45:21;100034.19;;;11.23;97.42
75692;BME280;64307;52.508;6.090;2023-04-01T13:56:38;100044.56;;;10.96;98.21
75692;BME280;64307;52.508;6.090;2023-04-01T14:02:14;100059.78;;;10.88;98.43
75692;BME280;64307;52.508;6.090;2023-04-01T14:31:17;100105.16;;;10.54;99.20
75692;BME280;64307;52.508;6.090;2023-04-01T14:33:48;100114.56;;;10.64;99.29
75692;BME280;64307;52.508;6.090;2023-04-01T14:42:23;100116.94;;;10.65;99.26
75692;BME280;64307;52.508;6.090;2023-04-01T14:47:51;100140.22;;;10.48;97.73
75692;BME280;64307;52.508;6.090;2023-04-01T14:50:24;100142.25;;;10.44;96.52
75692;BME280;64307;52.508;6.090;2023-04-01T14:53:13;100147.72;;;10.51;97.63
75692;BME280;64307;52.508;6.090;2023-04-01T15:08:54;100171.97;;;10.51;96.92
75692;BME280;64307;52.508;6.090;2023-04-01T15:11:51;100180.31;;;10.54;97.72
75692;BME280;64307;52.508;6.090;2023-04-01T15:15:00;100190.19;;;10.62;97.78
75692;BME280;64307;52.508;6.090;2023-04-01T15:17:41;100201.38;;;10.55;96.21
75692;BME280;64307;52.508;6.090;2023-04-01T15:23:43;100207.88;;;10.42;97.03
75692;BME280;64307;52.508;6.090;2023-04-01T15:29:31;100224.31;;;10.22;97.04
75692;BME280;64307;52.508;6.090;2023-04-01T15:32:16;100233.59;;;10.05;97.57
75692;BME280;64307;52.508;6.090;2023-04-01T15:37:41;100225.66;;;10.00;95.88
75692;BME280;64307;52.508;6.090;2023-04-01T15:43:17;100253.44;;;10.07;96.20
75692;BME280;64307;52.508;6.090;2023-04-01T15:48:31;100266.59;;;10.03;96.79
75692;BME280;64307;52.508;6.090;2023-04-01T15:53:37;100278.13;;;9.98;97.18
75692;BME280;64307;52.508;6.090;2023-04-01T15:56:15;100286.06;;;10.03;97.18
75692;BME280;64307;52.508;6.090;2023-04-01T16:01:23;100296.06;;;9.90;96.85
75692;BME280;64307;52.508;6.090;2023-04-01T16:12:53;100313.19;;;9.85;94.46
75692;BME280;64307;52.508;6.090;2023-04-01T16:21:05;100340.66;;;9.72;95.23
75692;BME280;64307;52.508;6.090;2023-04-01T16:23:51;100349.75;;;9.73;95.72
75692;BME280;64307;52.508;6.090;2023-04-01T16:26:33;100345.03;;;9.70;96.26
75692;BME280;64307;52.508;6.090;2023-04-01T16:32:18;100362.09;;;9.65;96.19
75692;BME280;64307;52.508;6.090;2023-04-01T16:37:54;100377.22;;;9.57;96.71
75692;BME280;64307;52.508;6.090;2023-04-01T16:40:50;100379.22;;;9.56;97.32
75692;BME280;64307;52.508;6.090;2023-04-01T16:46:27;100387.97;;;9.51;97.34
75692;BME280;64307;52.508;6.090;2023-04-01T16:51:40;100398.28;;;9.58;96.17
75692;BME280;64307;52.508;6.090;2023-04-01T16:56:49;100411.41;;;9.47;97.12
75692;BME280;64307;52.508;6.090;2023-04-01T16:59:21;100432.06;;;9.39;95.84
75692;BME280;64307;52.508;6.090;2023-04-01T17:01:52;100432.06;;;9.35;96.28
75692;BME280;64307;52.508;6.090;2023-04-01T17:04:45;100446.75;;;9.39;96.19
75692;BME280;64307;52.508;6.090;2023-04-01T17:18:33;100484.88;;;9.28;96.45
75692;BME280;64307;52.508;6.090;2023-04-01T17:21:38;100482.88;;;9.29;95.75
75692;BME280;64307;52.508;6.090;2023-04-01T17:24:55;100479.72;;;9.27;96.27
75692;BME280;64307;52.508;6.090;2023-04-01T17:27:42;100476.13;;;9.16;95.81
75692;BME280;64307;52.508;6.090;2023-04-01T17:33:10;100503.91;;;9.23;95.54
75692;BME280;64307;52.508;6.090;2023-04-01T17:39:32;100524.13;;;9.05;95.25
75692;BME280;64307;52.508;6.090;2023-04-01T17:42:10;100531.66;;;8.94;95.17
75692;BME280;64307;52.508;6.090;2023-04-01T17:44:52;100528.50;;;8.96;95.77
75692;BME280;64307;52.508;6.090;2023-04-01T17:50:16;100548.34;;;8.94;96.33
75692;BME280;64307;52.508;6.090;2023-04-01T17:55:44;100564.16;;;8.83;95.99
75692;BME280;64307;52.508;6.090;2023-04-01T17:58:44;100570.13;;;8.89;96.61
75692;BME280;64307;52.508;6.090;2023-04-01T18:12:30;100608.13;;;8.67;95.79
75692;BME280;64307;52.508;6.090;2023-04-01T18:18:09;100624.38;;;8.65;95.37
75692;BME280;64307;52.508;6.090;2023-04-01T18:20:53;100636.22;;;8.59;95.85
75692;BME280;64307;52.508;6.090;2023-04-01T18:25:50;100638.56;;;8.50;95.29
75692;BME280;64307;52.508;6.090;2023-04-01T18:31:13;100661.16;;;8.48;96.37
75692;BME280;64307;52.508;6.090;2023-04-01T18:36:38;100669.53;;;8.52;96.22
75692;BME280;64307;52.508;6.090;2023-04-01T18:39:23;100675.84;;;8.52;96.07
75692;BME280;64307;52.508;6.090;2023-04-01T18:42:24;100682.53;;;8.41;96.27
75692;BME280;64307;52.508;6.090;2023-04-01T18:48:00;100689.19;;;8.29;94.56
75692;BME280;64307;52.508;6.090;2023-04-01T18:50:52;100698.63;;;8.24;94.81
75692;BME280;64307;52.508;6.090;2023-04-01T18:53:31;100706.19;;;8.27;95.78
75692;BME280;64307;52.508;6.090;2023-04-01T18:56:05;100713.34;;;8.29;95.29
75692;BME280;64307;52.508;6.090;2023-04-01T18:58:58;100725.56;;;8.24;94.18
75692;BME280;64307;52.508;6.090;2023-04-01T19:01:28;100728.31;;;8.20;93.67
75692;BME280;64307;52.508;6.090;2023-04-01T19:06:55;100742.88;;;8.10;93.14
75692;BME280;64307;52.508;6.090;2023-04-01T19:09:43;100748.38;;;8.03;93.32
75692;BME280;64307;52.508;6.090;2023-04-01T19:18:22;100776.00;;;7.96;92.73
75692;BME280;64307;52.508;6.090;2023-04-01T19:20:57;100781.25;;;8.05;93.54
75692;BME280;64307;52.508;6.090;2023-04-01T19:26:27;100796.66;;;7.99;93.70
75692;BME280;64307;52.508;6.090;2023-04-01T19:37:11;100822.97;;;7.79;94.52
75692;BME280;64307;52.508;6.090;2023-04-01T19:45:47;100825.59;;;7.68;95.31
75692;BME280;64307;52.508;6.090;2023-04-01T19:50:52;100852.63;;;7.75;94.38
75692;BME280;64307;52.508;6.090;2023-04-01T19:56:15;100855.69;;;7.66;93.68
75692;BME280;64307;52.508;6.090;2023-04-01T20:04:48;100888.06;;;7.59;94.25
75692;BME280;64307;52.508;6.090;2023-04-01T20:07:51;100888.06;;;7.59;94.68
75692;BME280;64307;52.508;6.090;2023-04-01T20:10:48;100894.28;;;7.52;94.73
75692;BME280;64307;52.508;6.090;2023-04-01T20:13:32;100900.88;;;7.40;94.66
75692;BME280;64307;52.508;6.090;2023-04-01T20:16:04;100930.50;;;7.36;95.16
75692;BME280;64307;52.508;6.090;2023-04-01T20:18:41;100918.44;;;7.25;96.15
75692;BME280;64307;52.508;6.090;2023-04-01T20:21:34;100921.16;;;7.22;96.49
75692;BME280;64307;52.508;6.090;2023-04-01T20:26:41;100936.13;;;7.17;96.26
75692;BME280;64307;52.508;6.090;2023-04-01T20:31:42;100934.50;;;7.16;96.61
75692;BME280;64307;52.508;6.090;2023-04-01T20:42:29;100981.97;;;7.15;96.27
75692;BME280;64307;52.508;6.090;2023-04-01T20:47:55;100982.91;;;7.00;97.10
75692;BME280;64307;52.508;6.090;2023-04-01T20:50:48;100987.41;;;7.08;95.82
75692;BME280;64307;52.508;6.090;2023-04-01T20:56:23;100987.94;;;6.94;96.31